createdAt,value
2019-03-30T00:01:26.801Z,9.73
2019-03-30T00:03:56.731Z,9.85
2019-03-30T00:06:26.877Z,9.40
2019-03-30T00:08:56.800Z,10.55
2019-03-30T00:11:26.762Z,11.28
2019-03-30T00:13:56.759Z,9.95
2019-03-30T00:16:26.853Z,9.95
2019-03-30T00:18:56.778Z,10.65
2019-03-30T00:21:26.804Z,10.55
2019-03-30T00:23:56.749Z,10.63
2019-03-30T00:26:27.888Z,10.43
2019-03-30T00:28:57.901Z,10.38
2019-03-30T00:31:27.836Z,9.98
2019-03-30T00:33:57.773Z,9.83
2019-03-30T00:36:27.857Z,11.15
2019-03-30T00:38:57.792Z,10.20
2019-03-30T00:41:27.720Z,9.60
2019-03-30T00:43:57.648Z,10.80
2019-03-30T00:46:27.596Z,9.85
2019-03-30T00:48:57.624Z,11.08
2019-03-30T00:51:27.560Z,10.43
2019-03-30T00:53:59.381Z,11.03
2019-03-30T00:56:29.331Z,10.50
2019-03-30T00:58:59.255Z,11.10
2019-03-30T01:01:29.201Z,10.15
2019-03-30T01:03:59.204Z,10.90
2019-03-30T01:06:29.152Z,9.70
2019-03-30T01:08:59.097Z,10.80
2019-03-30T01:11:29.112Z,11.25
2019-03-30T01:13:59.128Z,10.93
2019-03-30T01:16:29.156Z,12.00
2019-03-30T01:18:59.432Z,10.00
2019-03-30T01:21:29.372Z,9.68
2019-03-30T01:23:59.285Z,9.78
2019-03-30T01:26:29.244Z,10.48
2019-03-30T01:28:59.178Z,11.68
2019-03-30T01:31:31.010Z,10.28
2019-03-30T01:34:01.013Z,11.33
2019-03-30T01:36:30.972Z,10.38
2019-03-30T01:39:00.909Z,10.88
2019-03-30T01:41:30.832Z,10.90
2019-03-30T01:44:00.779Z,11.18
2019-03-30T01:46:30.704Z,11.70
2019-03-30T01:49:00.656Z,10.93
2019-03-30T01:51:30.582Z,10.85
2019-03-30T01:54:00.507Z,11.03
2019-03-30T01:56:30.471Z,10.25
2019-03-30T01:59:00.461Z,11.28
2019-03-30T02:01:30.486Z,9.98
2019-03-30T02:04:00.522Z,10.88
2019-03-30T02:06:30.556Z,11.15
2019-03-30T02:09:00.553Z,10.30
2019-03-30T02:11:30.500Z,11.65
2019-03-30T02:14:00.424Z,11.65
2019-03-30T02:16:32.155Z,10.00
2019-03-30T02:19:02.120Z,11.35
2019-03-30T02:21:32.125Z,10.80
2019-03-30T02:24:02.056Z,11.08
2019-03-30T02:26:32.009Z,10.35
2019-03-30T02:29:01.977Z,10.75
2019-03-30T02:31:31.901Z,10.55
2019-03-30T02:34:01.858Z,10.10
2019-03-30T02:36:31.809Z,11.18
2019-03-30T02:39:01.801Z,10.20
2019-03-30T02:41:31.676Z,10.98
2019-03-30T02:44:01.682Z,9.58
2019-03-30T02:46:31.697Z,9.85
2019-03-30T02:49:01.638Z,10.03
2019-03-30T02:51:31.657Z,10.15
2019-03-30T02:54:01.652Z,10.05
2019-03-30T02:56:31.597Z,10.80
2019-03-30T02:59:01.539Z,10.20
2019-03-30T03:01:31.487Z,9.73
2019-03-30T03:04:01.588Z,10.85
2019-03-30T03:06:31.584Z,10.05
2019-03-30T03:09:01.505Z,10.28
2019-03-30T03:11:31.607Z,11.73
2019-03-30T03:14:01.627Z,10.10
2019-03-30T03:16:31.621Z,10.68
2019-03-30T03:19:01.645Z,9.98
2019-03-30T03:21:31.700Z,11.00
2019-03-30T03:24:01.659Z,10.90
2019-03-30T03:26:31.796Z,10.88
2019-03-30T03:29:01.741Z,10.43
2019-03-30T03:31:31.769Z,8.90
2019-03-30T03:34:02.019Z,11.20
2019-03-30T03:36:32.157Z,11.65
2019-03-30T03:39:02.121Z,10.60
2019-03-30T03:41:32.053Z,10.20
2019-03-30T03:44:02.079Z,11.22
2019-03-30T03:46:32.140Z,10.60
2019-03-30T03:49:02.147Z,11.00
2019-03-30T03:51:32.953Z,9.85
2019-03-30T03:54:03.191Z,10.05
2019-03-30T03:56:35.174Z,11.95
2019-03-30T03:59:07.206Z,11.20
2019-03-30T04:01:38.029Z,9.48
2019-03-30T04:04:11.048Z,10.05
2019-03-30T04:06:41.483Z,14.63
2019-03-30T04:09:15.117Z,10.85
2019-03-30T04:11:46.602Z,10.48
2019-03-30T04:14:19.816Z,9.93
2019-03-30T04:16:49.866Z,10.53
2019-03-30T04:19:19.796Z,10.30
2019-03-30T04:21:49.673Z,11.20
2019-03-30T04:24:19.607Z,11.75
2019-03-30T04:26:49.608Z,9.10
2019-03-30T04:29:20.737Z,10.58
2019-03-30T04:31:50.659Z,8.60
2019-03-30T04:34:20.649Z,9.88
2019-03-30T04:36:50.627Z,9.80
2019-03-30T04:39:20.649Z,10.03
2019-03-30T04:41:50.570Z,10.00
2019-03-30T04:44:20.530Z,10.00
2019-03-30T04:46:50.620Z,9.55
2019-03-30T04:49:20.548Z,10.03
2019-03-30T04:51:57.525Z,10.18
2019-03-30T04:54:22.145Z,9.85
2019-03-30T04:56:52.124Z,10.23
2019-03-30T04:59:22.055Z,10.25
2019-03-30T05:01:51.983Z,10.25
2019-03-30T05:04:22.000Z,10.60
2019-03-30T05:06:52.080Z,10.93
2019-03-30T05:09:22.053Z,10.10
2019-03-30T05:11:51.977Z,10.50
2019-03-30T05:14:21.964Z,9.95
2019-03-30T05:16:51.891Z,9.70
2019-03-30T05:19:21.818Z,9.33
2019-03-30T05:21:51.828Z,10.40
2019-03-30T05:24:21.756Z,10.25
2019-03-30T05:26:51.639Z,9.58
2019-03-30T05:29:21.560Z,10.80
2019-03-30T05:31:51.480Z,9.80
2019-03-30T05:34:21.424Z,8.88
2019-03-30T05:36:54.224Z,10.72
2019-03-30T05:39:24.188Z,10.35
2019-03-30T05:41:54.112Z,9.90
2019-03-30T05:44:24.034Z,9.68
2019-03-30T05:46:54.056Z,9.05
2019-03-30T05:49:23.968Z,9.88
2019-03-30T05:51:53.916Z,8.75
2019-03-30T05:54:23.840Z,10.90
2019-03-30T05:56:55.140Z,9.60
2019-03-30T05:59:25.085Z,8.63
2019-03-30T06:01:55.093Z,10.03
2019-03-30T06:04:25.016Z,9.60
2019-03-30T06:06:55.013Z,9.55
2019-03-30T06:09:25.014Z,10.18
2019-03-30T06:11:54.968Z,9.05
2019-03-30T06:14:24.995Z,11.15
2019-03-30T06:16:54.931Z,10.78
2019-03-30T06:19:24.939Z,9.70
2019-03-30T06:21:54.952Z,9.33
2019-03-30T06:24:24.913Z,8.40
2019-03-30T06:26:54.908Z,8.40
2019-03-30T06:29:24.932Z,8.75
2019-03-30T06:31:54.932Z,9.00
2019-03-30T06:34:24.961Z,10.40
2019-03-30T06:36:54.992Z,9.23
2019-03-30T06:39:24.913Z,9.18
2019-03-30T06:41:54.835Z,9.10
2019-03-30T06:44:24.797Z,8.18
2019-03-30T06:46:54.797Z,9.38
2019-03-30T06:49:24.797Z,8.03
2019-03-30T06:51:54.768Z,8.65
2019-03-30T06:54:26.777Z,9.93
2019-03-30T06:56:56.843Z,8.43
2019-03-30T06:59:26.982Z,9.83
2019-03-30T07:01:57.189Z,9.50
2019-03-30T07:04:27.052Z,9.55
2019-03-30T07:06:58.120Z,8.85
2019-03-30T07:09:31.075Z,8.18
2019-03-30T07:12:02.980Z,8.93
2019-03-30T07:14:35.653Z,10.03
2019-03-30T07:17:07.089Z,11.28
2019-03-30T07:19:40.289Z,7.90
2019-03-30T07:22:10.316Z,7.90
2019-03-30T07:24:40.328Z,8.83
2019-03-30T07:27:10.454Z,7.50
2019-03-30T07:29:40.454Z,8.03
2019-03-30T07:32:10.461Z,8.90
2019-03-30T07:34:41.848Z,9.90
2019-03-30T07:37:11.928Z,8.60
2019-03-30T07:39:41.954Z,8.73
2019-03-30T07:42:11.898Z,8.77
2019-03-30T07:44:41.952Z,8.20
2019-03-30T07:47:12.049Z,8.17
2019-03-30T07:49:41.984Z,8.00
2019-03-30T07:52:12.000Z,7.50
2019-03-30T07:54:43.101Z,7.40
2019-03-30T07:57:17.171Z,9.00
2019-03-30T07:59:45.214Z,8.43
2019-03-30T08:02:15.587Z,9.60
2019-03-30T08:04:45.548Z,8.57
2019-03-30T08:07:15.465Z,9.63
2019-03-30T08:09:45.544Z,7.97
2019-03-30T08:12:15.500Z,9.00
2019-03-30T08:14:56.169Z,8.20
2019-03-30T08:17:26.136Z,8.00
2019-03-30T08:19:56.237Z,8.47
2019-03-30T08:22:26.162Z,8.17
2019-03-30T08:24:56.237Z,7.30
2019-03-30T08:27:26.256Z,8.50
2019-03-30T08:29:56.141Z,9.70
2019-03-30T08:32:26.065Z,8.90
2019-03-30T08:34:55.996Z,9.00
2019-03-30T08:37:26.120Z,10.10
2019-03-30T08:39:56.064Z,10.60
2019-03-30T08:42:25.994Z,9.30
2019-03-30T08:44:55.957Z,9.53
2019-03-30T08:47:25.972Z,9.73
2019-03-30T08:49:55.924Z,10.60
2019-03-30T08:52:25.883Z,10.53
2019-03-30T08:54:55.808Z,9.80
2019-03-30T08:57:25.793Z,10.97
2019-03-30T08:59:55.764Z,12.07
2019-03-30T09:02:25.701Z,10.93
2019-03-30T09:04:55.659Z,11.23
2019-03-30T09:07:25.676Z,12.13
2019-03-30T09:09:55.800Z,11.93
2019-03-30T09:12:25.852Z,13.37
2019-03-30T09:14:55.812Z,12.07
2019-03-30T09:17:25.825Z,12.90
2019-03-30T09:19:55.758Z,11.43
2019-03-30T09:22:25.684Z,13.17
2019-03-30T09:24:55.624Z,13.43
2019-03-30T09:27:25.564Z,13.60
2019-03-30T09:29:55.526Z,11.93
2019-03-30T09:32:25.461Z,15.27
2019-03-30T09:34:55.541Z,14.17
2019-03-30T09:37:25.500Z,13.53
2019-03-30T09:39:55.988Z,12.93
2019-03-30T09:42:26.000Z,12.60
2019-03-30T09:44:56.393Z,14.77
2019-03-30T09:47:26.416Z,14.30
2019-03-30T09:49:56.424Z,14.73
2019-03-30T09:52:26.492Z,13.90
2019-03-30T09:54:56.492Z,13.60
2019-03-30T09:57:26.424Z,13.83
2019-03-30T09:59:56.438Z,13.93
2019-03-30T10:02:26.464Z,15.17
2019-03-30T10:04:56.461Z,15.67
2019-03-30T10:07:26.420Z,17.43
2019-03-30T10:09:56.372Z,14.37
2019-03-30T10:12:26.314Z,13.70
2019-03-30T10:14:56.352Z,13.87
2019-03-30T10:17:26.453Z,15.03
2019-03-30T10:20:04.276Z,14.73
2019-03-30T10:22:28.124Z,14.00
2019-03-30T10:24:58.558Z,13.20
2019-03-30T10:27:28.707Z,14.80
2019-03-30T10:29:58.718Z,13.93
2019-03-30T10:32:28.725Z,13.20
2019-03-30T10:34:58.651Z,13.50
2019-03-30T10:37:28.739Z,14.07
2019-03-30T10:39:58.716Z,13.43
2019-03-30T10:42:28.660Z,14.50
2019-03-30T10:44:58.592Z,12.77
2019-03-30T10:47:28.472Z,12.50
2019-03-30T10:49:58.412Z,13.00
2019-03-30T10:52:28.381Z,12.67
2019-03-30T10:54:58.367Z,13.70
2019-03-30T10:57:28.404Z,13.90
2019-03-30T10:59:58.384Z,14.90
2019-03-30T11:02:28.376Z,14.33
2019-03-30T11:04:58.344Z,14.50
2019-03-30T11:07:28.351Z,15.07
2019-03-30T11:09:58.378Z,14.17
2019-03-30T11:12:28.392Z,14.37
2019-03-30T11:14:58.413Z,14.60
2019-03-30T11:17:28.437Z,13.67
2019-03-30T11:19:58.360Z,15.63
2019-03-30T11:22:28.288Z,13.53
2019-03-30T11:25:07.468Z,14.03
2019-03-30T11:27:29.992Z,13.33
2019-03-30T11:29:59.993Z,14.53
2019-03-30T11:32:29.923Z,12.87
2019-03-30T11:35:00.343Z,14.80
2019-03-30T11:37:30.395Z,14.30
2019-03-30T11:40:00.353Z,14.33
2019-03-30T11:42:30.358Z,16.03
2019-03-30T11:45:00.299Z,15.17
2019-03-30T11:47:30.412Z,14.50
2019-03-30T11:50:00.435Z,14.40
2019-03-30T11:52:31.555Z,15.60
2019-03-30T11:55:01.588Z,16.90
2019-03-30T11:57:31.588Z,14.33
2019-03-30T12:00:01.520Z,16.30
2019-03-30T12:02:31.489Z,14.63
2019-03-30T12:05:01.545Z,15.63
2019-03-30T12:07:31.400Z,13.30
2019-03-30T12:10:01.440Z,14.07
2019-03-30T12:12:31.440Z,13.57
2019-03-30T12:15:01.442Z,13.43
2019-03-30T12:17:31.588Z,14.37
2019-03-30T12:20:01.533Z,14.40
2019-03-30T12:22:31.580Z,14.20
2019-03-30T12:25:03.300Z,14.50
2019-03-30T12:27:33.235Z,13.60
2019-03-30T12:30:03.261Z,14.07
2019-03-30T12:32:33.265Z,15.10
2019-03-30T12:35:03.297Z,13.97
2019-03-30T12:37:33.328Z,15.60
2019-03-30T12:40:03.396Z,14.50
2019-03-30T12:42:33.362Z,14.47
2019-03-30T12:45:08.008Z,14.17
2019-03-30T12:47:38.082Z,14.17
2019-03-30T12:50:09.782Z,14.83
2019-03-30T12:52:39.736Z,14.43
2019-03-30T12:55:09.776Z,12.30
2019-03-30T12:57:39.715Z,14.00
2019-03-30T13:00:10.640Z,13.60
2019-03-30T13:02:40.584Z,13.93
2019-03-30T13:05:10.710Z,13.90
2019-03-30T13:07:40.784Z,13.70
2019-03-30T13:10:10.729Z,14.40
2019-03-30T13:12:40.769Z,14.37
2019-03-30T13:15:10.965Z,13.53
2019-03-30T13:17:40.936Z,12.40
2019-03-30T13:20:11.276Z,13.93
2019-03-30T13:22:41.202Z,13.03
2019-03-30T13:25:11.417Z,12.73
2019-03-30T13:27:41.454Z,14.00
2019-03-30T13:30:12.817Z,15.23
2019-03-30T13:32:42.905Z,14.63
2019-03-30T13:35:12.862Z,13.93
2019-03-30T13:37:42.868Z,14.93
2019-03-30T13:40:13.160Z,13.60
2019-03-30T13:42:43.425Z,14.33
2019-03-30T13:45:13.616Z,14.80
2019-03-30T13:47:43.629Z,14.60
2019-03-30T13:50:14.028Z,13.93
2019-03-30T13:52:43.980Z,13.97
2019-03-30T13:55:14.423Z,13.63
2019-03-30T13:57:44.411Z,13.30
2019-03-30T14:00:14.977Z,13.77
2019-03-30T14:02:45.940Z,13.00
2019-03-30T14:05:16.035Z,14.87
2019-03-30T14:07:46.049Z,12.57
2019-03-30T14:10:16.188Z,13.30
2019-03-30T14:12:46.228Z,11.77
2019-03-30T14:15:16.376Z,14.27
2019-03-30T14:17:46.435Z,13.20
2019-03-30T14:20:16.483Z,14.17
2019-03-30T14:22:46.493Z,12.40
2019-03-30T14:25:16.465Z,12.23
2019-03-30T14:27:47.612Z,14.50
2019-03-30T14:30:18.247Z,13.50
2019-03-30T14:32:48.281Z,13.03
2019-03-30T14:35:18.248Z,14.97
2019-03-30T14:37:48.383Z,13.47
2019-03-30T14:40:18.447Z,14.63
2019-03-30T14:42:48.473Z,13.33
2019-03-30T14:45:19.482Z,12.53
2019-03-30T14:47:49.552Z,12.43
2019-03-30T14:50:19.592Z,13.00
2019-03-30T14:52:49.630Z,12.70
2019-03-30T14:55:19.996Z,13.00
2019-03-30T14:57:49.936Z,12.70
2019-03-30T15:00:20.119Z,12.77
2019-03-30T15:02:50.281Z,12.33
2019-03-30T15:05:20.306Z,11.57
2019-03-30T15:07:50.274Z,12.10
2019-03-30T15:10:21.253Z,13.60
2019-03-30T15:12:51.284Z,14.40
2019-03-30T15:15:21.233Z,11.83
2019-03-30T15:17:51.284Z,12.10
2019-03-30T15:20:21.296Z,11.27
2019-03-30T15:22:51.235Z,12.20
2019-03-30T15:25:21.300Z,12.03
2019-03-30T15:27:51.300Z,11.40
2019-03-30T15:30:21.368Z,12.57
2019-03-30T15:32:51.416Z,12.63
2019-03-30T15:35:21.459Z,11.70
2019-03-30T15:37:51.488Z,12.40
2019-03-30T15:40:21.591Z,11.50
2019-03-30T15:42:51.635Z,13.17
2019-03-30T15:45:21.770Z,11.60
2019-03-30T15:47:51.744Z,11.40
2019-03-30T15:50:22.006Z,14.37
2019-03-30T15:52:52.047Z,11.50
2019-03-30T15:55:22.076Z,12.17
2019-03-30T15:57:52.099Z,11.47
2019-03-30T16:00:22.156Z,12.73
2019-03-30T16:02:52.675Z,13.30
2019-03-30T16:05:22.741Z,12.83
2019-03-30T16:07:52.778Z,11.57
2019-03-30T16:10:22.828Z,12.30
2019-03-30T16:12:52.821Z,10.83
2019-03-30T16:15:22.836Z,11.03
2019-03-30T16:17:52.828Z,13.00
2019-03-30T16:20:22.780Z,13.33
2019-03-30T16:22:52.708Z,11.57
2019-03-30T16:25:22.653Z,13.07
2019-03-30T16:27:52.616Z,11.93
2019-03-30T16:30:22.687Z,10.23
2019-03-30T16:32:52.721Z,10.87
2019-03-30T16:35:22.712Z,12.10
2019-03-30T16:37:52.650Z,11.20
2019-03-30T16:40:22.669Z,10.53
2019-03-30T16:42:52.629Z,10.97
2019-03-30T16:45:22.672Z,12.87
2019-03-30T16:47:52.588Z,11.30
2019-03-30T16:50:22.604Z,11.50
2019-03-30T16:52:52.572Z,10.77
2019-03-30T16:55:22.629Z,11.13
2019-03-30T16:57:52.627Z,10.60
2019-03-30T17:00:22.554Z,12.07
2019-03-30T17:02:52.513Z,11.07
2019-03-30T17:05:22.449Z,11.20
2019-03-30T17:07:52.408Z,12.40
2019-03-30T17:10:22.399Z,12.13
2019-03-30T17:12:52.730Z,10.90
2019-03-30T17:15:22.771Z,11.50
2019-03-30T17:17:52.785Z,11.27
2019-03-30T17:20:22.736Z,11.90
2019-03-30T17:22:52.725Z,12.13
2019-03-30T17:25:22.824Z,9.53
2019-03-30T17:27:58.704Z,9.83
2019-03-30T17:30:24.718Z,11.40
2019-03-30T17:32:54.758Z,9.30
2019-03-30T17:35:24.748Z,12.07
2019-03-30T17:37:54.705Z,11.50
2019-03-30T17:40:25.617Z,9.50
2019-03-30T17:42:55.584Z,11.10
2019-03-30T17:45:25.659Z,10.53
2019-03-30T17:47:55.657Z,10.50
2019-03-30T17:50:25.729Z,11.23
2019-03-30T17:52:55.863Z,11.00
2019-03-30T17:55:33.634Z,11.27
2019-03-30T17:58:11.954Z,11.77
2019-03-30T18:00:29.224Z,11.30
2019-03-30T18:02:59.164Z,10.33
2019-03-30T18:05:29.148Z,10.23
2019-03-30T18:08:01.744Z,11.53
2019-03-30T18:10:30.892Z,9.73
2019-03-30T18:13:00.912Z,11.07
2019-03-30T18:15:34.397Z,9.90
2019-03-30T18:18:02.659Z,10.17
2019-03-30T18:20:32.702Z,9.33
2019-03-30T18:23:02.768Z,11.07
2019-03-30T18:25:32.815Z,10.53
2019-03-30T18:28:02.796Z,9.90
2019-03-30T18:30:38.026Z,11.70
2019-03-30T18:33:08.160Z,10.50
2019-03-30T18:35:39.869Z,11.17
2019-03-30T18:38:12.756Z,11.30
2019-03-30T18:40:41.787Z,10.57
2019-03-30T18:43:11.788Z,12.17
2019-03-30T18:45:42.148Z,12.10
2019-03-30T18:48:13.664Z,10.50
2019-03-30T18:50:44.337Z,12.57
2019-03-30T18:53:14.635Z,12.87
2019-03-30T18:55:44.667Z,12.03
2019-03-30T18:58:14.612Z,13.10
2019-03-30T19:00:44.542Z,14.03
2019-03-30T19:03:14.795Z,12.20
2019-03-30T19:05:44.850Z,12.80
2019-03-30T19:08:14.926Z,12.10
2019-03-30T19:10:44.999Z,13.43
2019-03-30T19:13:15.035Z,13.17
2019-03-30T19:15:45.135Z,12.90
2019-03-30T19:18:15.227Z,12.60
2019-03-30T19:20:45.194Z,14.20
2019-03-30T19:23:15.231Z,14.77
2019-03-30T19:25:45.360Z,14.67
2019-03-30T19:28:15.314Z,13.80
2019-03-30T19:30:45.382Z,14.20
2019-03-30T19:33:15.336Z,16.10
2019-03-30T19:35:45.406Z,12.73
2019-03-30T19:38:15.445Z,15.37
2019-03-30T19:40:45.436Z,14.23
2019-03-30T19:43:15.443Z,12.70
2019-03-30T19:45:45.440Z,13.50
2019-03-30T19:48:15.412Z,14.97
2019-03-30T19:50:45.510Z,13.00
2019-03-30T19:53:15.551Z,13.70
2019-03-30T19:55:45.590Z,13.07
2019-03-30T19:58:15.607Z,14.47
2019-03-30T20:00:45.656Z,15.00
2019-03-30T20:03:15.725Z,13.37
2019-03-30T20:05:45.772Z,13.70
2019-03-30T20:08:15.786Z,14.00
2019-03-30T20:10:45.864Z,14.80
2019-03-30T20:13:15.908Z,13.60
2019-03-30T20:15:45.942Z,13.70
2019-03-30T20:18:15.965Z,13.57
2019-03-30T20:20:46.094Z,12.40
2019-03-30T20:23:16.135Z,12.97
2019-03-30T20:25:46.179Z,13.77
2019-03-30T20:28:16.239Z,13.03
2019-03-30T20:30:46.410Z,11.80
2019-03-30T20:33:16.447Z,14.57
2019-03-30T20:35:46.445Z,14.27
2019-03-30T20:38:16.440Z,12.33
2019-03-30T20:40:46.441Z,14.30
2019-03-30T20:43:16.412Z,13.60
2019-03-30T20:45:46.453Z,16.17
2019-03-30T20:48:17.115Z,14.10
2019-03-30T20:50:47.275Z,14.03
2019-03-30T20:53:17.961Z,15.20
2019-03-30T20:55:48.174Z,15.77
2019-03-30T20:58:19.331Z,15.40
2019-03-30T21:00:50.185Z,16.07
2019-03-30T21:03:20.902Z,15.80
2019-03-30T21:05:51.128Z,16.67
2019-03-30T21:08:21.853Z,14.43
2019-03-30T21:10:52.039Z,13.93
2019-03-30T21:13:22.017Z,14.83
2019-03-30T21:15:52.031Z,16.43
2019-03-30T21:18:22.076Z,14.37
2019-03-30T21:20:52.107Z,15.43
2019-03-30T21:23:22.184Z,15.67
2019-03-30T21:25:52.235Z,15.30
2019-03-30T21:28:22.287Z,15.03
2019-03-30T21:30:52.320Z,14.93
2019-03-30T21:33:22.358Z,15.00
2019-03-30T21:35:52.429Z,15.63
2019-03-30T21:38:22.421Z,14.83
2019-03-30T21:40:52.432Z,15.73
2019-03-30T21:43:22.400Z,15.33
2019-03-30T21:45:52.455Z,15.10
2019-03-30T21:48:22.456Z,16.03
2019-03-30T21:50:52.413Z,16.10
2019-03-30T21:53:22.336Z,14.90
2019-03-30T21:55:52.327Z,15.33
2019-03-30T21:58:22.379Z,14.10
2019-03-30T22:00:52.480Z,14.40
2019-03-30T22:03:22.467Z,16.77
2019-03-30T22:05:52.537Z,15.73
2019-03-30T22:08:22.715Z,15.73
2019-03-30T22:10:52.825Z,15.07
2019-03-30T22:13:22.861Z,14.23
2019-03-30T22:15:52.895Z,13.70
2019-03-30T22:18:22.963Z,15.10
2019-03-30T22:20:52.996Z,14.07
2019-03-30T22:23:22.974Z,14.83
2019-03-30T22:25:53.019Z,14.83
2019-03-30T22:28:23.062Z,14.20
2019-03-30T22:30:53.143Z,14.10
2019-03-30T22:33:23.182Z,13.90
2019-03-30T22:35:53.118Z,13.67
2019-03-30T22:38:23.128Z,14.80
2019-03-30T22:40:53.138Z,14.73
2019-03-30T22:43:23.164Z,13.70
2019-03-30T22:45:53.097Z,14.50
2019-03-30T22:48:23.192Z,15.30
2019-03-30T22:50:53.230Z,16.17
2019-03-30T22:53:23.269Z,13.90
2019-03-30T22:55:53.240Z,15.13
2019-03-30T22:58:23.276Z,14.60
2019-03-30T23:01:06.253Z,14.80
2019-03-30T23:03:36.276Z,15.63
2019-03-30T23:06:06.239Z,15.20
2019-03-30T23:08:36.225Z,15.50
2019-03-30T23:11:06.229Z,14.33
2019-03-30T23:13:36.213Z,14.30
2019-03-30T23:16:06.233Z,15.17
2019-03-30T23:18:36.269Z,14.70
2019-03-30T23:21:06.260Z,15.03
2019-03-30T23:23:36.200Z,14.83
2019-03-30T23:26:06.212Z,14.20
2019-03-30T23:28:36.977Z,13.58
2019-03-30T23:31:07.097Z,14.90
2019-03-30T23:33:37.022Z,15.60
2019-03-30T23:36:06.957Z,15.90
2019-03-30T23:38:36.990Z,14.30
2019-03-30T23:41:06.928Z,14.50
2019-03-30T23:43:36.889Z,16.50
2019-03-30T23:46:06.892Z,13.93
2019-03-30T23:48:36.904Z,14.30
2019-03-30T23:51:06.847Z,14.10
2019-03-30T23:53:36.822Z,15.93
2019-03-30T23:56:21.548Z,14.73
2019-03-30T23:58:51.605Z,14.33
